Aeroporto :
LOGIN :

Iscrizione | Disclaimer

   EN    FR    IT 

 










Sommario :    VFR   VFR Marginale   IFR   IFR Intensivo   IFR Molto Intensivo
Visibilità : 
Base nubi : 
>= 8 km
>= 3000ft
5 / 8 km
1000 / 3000 ft
1500m / 5 km
500 / 1000 ft
800 / 1500m
200 / 500 ft
< 800m
< 200 ft
Simboli :   Temporali  Nebbia  Neve Forte  Precipitazioni Forti  Vento > 20 kt
SIGMETs :   Varie  Temporali  Ghiacco  Turbolenza  Onda orograficha  Ceneri Vulcaniche







- Altitudine del aeroporto : 650 ft
- Codice IATA : ZJI


LSZL - Locarno

ULTIMO METAR :
  • 131520Z 24003KT 200V260 9999 FEW045 15/12 Q1027 RMK BLU+

METARs OBSOLETI :
  • 131450Z 00000KT 9999 FEW045 16/12 Q1027 RMK BLU+
  • 131420Z 26004KT 9999 FEW060 15/12 Q1026 RMK BLU+
  • 131350Z 26004KT 230V290 9999 FEW035 15/12 Q1026 RMK BLU+
  • 131320Z 25003KT 220V360 9999 FEW035 16/13 Q1026 RMK BLU+
  • 131250Z 24004KT 210V270 9999 FEW030 16/12 Q1027 RMK BLU+

TAF TAF LSZL
Valido dal 13 a 12 ore il 13 a 21 ore UTC


131125Z 1312/1321 VRB01KT 9999 FEW015 BKN070
BECMG 1319/1321 4000 BR
Nessun NOTAM noto per questo aeroporto.



MetMap, La meteo Aeronautica in un colpo d'occhio ! - Copyright ORBIFLY Dicembre 2007 - Disclaimer

ORBIFLY MET'MAP TEAM :

Programmazione e sviluppo : Alexandra Zaïnal
Concezione e sviluppo : Baudouin d'Aumeries
Co-Programmazione e sviluppo : Marc-Olivier Méhu
Supporto tecnico e logistico : Manuel Goepfert
Aiuto per la traduzione : Arnaldo La Scala

Contatto : metmap@orbifly.com




FONTI E CREDITI :

   NOAA